sensor_id;sensor_type;location;lat;lon;timestamp;P1;durP1;ratioP1;P2;durP2;ratioP2
23730;SDS011;12046;44.702;10.622;2022-07-23T00:02:23;9.85;;;6.22;;
23730;SDS011;12046;44.702;10.622;2022-07-23T00:04:50;8.75;;;5.93;;
23730;SDS011;12046;44.702;10.622;2022-07-23T00:07:16;9.05;;;6.05;;
23730;SDS011;12046;44.702;10.622;2022-07-23T00:09:42;7.95;;;5.90;;
23730;SDS011;12046;44.702;10.622;2022-07-23T00:12:08;9.00;;;6.05;;
23730;SDS011;12046;44.702;10.622;2022-07-23T00:14:34;7.65;;;5.80;;
23730;SDS011;12046;44.702;10.622;2022-07-23T00:17:00;10.27;;;5.78;;
23730;SDS011;12046;44.702;10.622;2022-07-23T00:19:26;9.52;;;6.03;;
23730;SDS011;12046;44.702;10.622;2022-07-23T00:21:52;8.10;;;6.32;;
23730;SDS011;12046;44.702;10.622;2022-07-23T00:24:18;7.03;;;6.30;;
23730;SDS011;12046;44.702;10.622;2022-07-23T00:26:44;9.82;;;6.03;;
23730;SDS011;12046;44.702;10.622;2022-07-23T00:29:10;12.80;;;6.82;;
23730;SDS011;12046;44.702;10.622;2022-07-23T00:31:36;8.93;;;6.20;;
23730;SDS011;12046;44.702;10.622;2022-07-23T00:34:02;8.73;;;6.43;;
23730;SDS011;12046;44.702;10.622;2022-07-23T00:36:28;12.18;;;6.35;;
23730;SDS011;12046;44.702;10.622;2022-07-23T00:38:56;8.88;;;6.03;;
23730;SDS011;12046;44.702;10.622;2022-07-23T00:41:22;7.28;;;6.38;;
23730;SDS011;12046;44.702;10.622;2022-07-23T00:43:48;10.65;;;7.00;;
23730;SDS011;12046;44.702;10.622;2022-07-23T00:46:23;11.55;;;6.43;;
23730;SDS011;12046;44.702;10.622;2022-07-23T00:48:50;7.78;;;6.60;;
23730;SDS011;12046;44.702;10.622;2022-07-23T00:51:16;8.85;;;6.65;;
23730;SDS011;12046;44.702;10.622;2022-07-23T00:53:43;8.38;;;6.20;;
23730;SDS011;12046;44.702;10.622;2022-07-23T00:56:09;7.43;;;6.40;;
23730;SDS011;12046;44.702;10.622;2022-07-23T00:58:36;9.25;;;6.20;;
23730;SDS011;12046;44.702;10.622;2022-07-23T01:01:04;10.30;;;6.65;;
23730;SDS011;12046;44.702;10.622;2022-07-23T01:03:31;7.70;;;6.00;;
23730;SDS011;12046;44.702;10.622;2022-07-23T01:05:56;8.45;;;6.18;;
23730;SDS011;12046;44.702;10.622;2022-07-23T01:08:23;8.88;;;6.22;;
23730;SDS011;12046;44.702;10.622;2022-07-23T01:10:50;10.38;;;6.60;;
23730;SDS011;12046;44.702;10.622;2022-07-23T01:13:16;9.60;;;6.30;;
23730;SDS011;12046;44.702;10.622;2022-07-23T01:15:42;7.75;;;6.97;;
23730;SDS011;12046;44.702;10.622;2022-07-23T01:18:09;6.47;;;5.78;;
23730;SDS011;12046;44.702;10.622;2022-07-23T01:20:37;9.55;;;6.13;;
23730;SDS011;12046;44.702;10.622;2022-07-23T01:23:04;11.60;;;5.93;;
23730;SDS011;12046;44.702;10.622;2022-07-23T01:25:30;7.75;;;6.95;;
23730;SDS011;12046;44.702;10.622;2022-07-23T01:27:56;7.97;;;6.32;;
23730;SDS011;12046;44.702;10.622;2022-07-23T01:30:22;8.85;;;6.00;;
23730;SDS011;12046;44.702;10.622;2022-07-23T01:32:49;7.93;;;6.10;;
23730;SDS011;12046;44.702;10.622;2022-07-23T01:35:15;6.22;;;5.60;;
23730;SDS011;12046;44.702;10.622;2022-07-23T01:37:41;6.40;;;4.82;;
23730;SDS011;12046;44.702;10.622;2022-07-23T01:40:07;9.20;;;5.82;;
23730;SDS011;12046;44.702;10.622;2022-07-23T01:42:33;8.50;;;5.78;;
23730;SDS011;12046;44.702;10.622;2022-07-23T01:45:00;7.45;;;5.72;;
23730;SDS011;12046;44.702;10.622;2022-07-23T01:47:26;5.97;;;5.38;;
23730;SDS011;12046;44.702;10.622;2022-07-23T01:49:52;6.95;;;4.50;;
23730;SDS011;12046;44.702;10.622;2022-07-23T01:52:18;6.85;;;5.40;;
23730;SDS011;12046;44.702;10.622;2022-07-23T01:54:44;6.80;;;5.47;;
23730;SDS011;12046;44.702;10.622;2022-07-23T01:57:10;8.32;;;5.40;;
23730;SDS011;12046;44.702;10.622;2022-07-23T01:59:36;6.25;;;5.15;;
23730;SDS011;12046;44.702;10.622;2022-07-23T02:02:04;10.43;;;6.07;;
23730;SDS011;12046;44.702;10.622;2022-07-23T02:04:30;7.43;;;5.65;;
23730;SDS011;12046;44.702;10.622;2022-07-23T02:06:57;7.05;;;5.95;;
23730;SDS011;12046;44.702;10.622;2022-07-23T02:09:23;9.05;;;5.88;;
23730;SDS011;12046;44.702;10.622;2022-07-23T02:11:49;8.18;;;5.97;;
23730;SDS011;12046;44.702;10.622;2022-07-23T02:14:15;13.52;;;7.03;;
23730;SDS011;12046;44.702;10.622;2022-07-23T02:16:41;9.38;;;6.82;;
23730;SDS011;12046;44.702;10.622;2022-07-23T02:19:06;8.25;;;6.43;;
23730;SDS011;12046;44.702;10.622;2022-07-23T02:21:32;7.72;;;6.07;;
23730;SDS011;12046;44.702;10.622;2022-07-23T02:23:59;7.93;;;6.45;;
23730;SDS011;12046;44.702;10.622;2022-07-23T02:26:24;7.07;;;5.70;;
23730;SDS011;12046;44.702;10.622;2022-07-23T02:28:50;7.07;;;6.05;;
23730;SDS011;12046;44.702;10.622;2022-07-23T02:31:18;8.18;;;5.97;;
23730;SDS011;12046;44.702;10.622;2022-07-23T02:33:44;8.15;;;5.70;;
23730;SDS011;12046;44.702;10.622;2022-07-23T02:36:10;8.82;;;5.80;;
23730;SDS011;12046;44.702;10.622;2022-07-23T02:38:36;7.78;;;5.85;;
23730;SDS011;12046;44.702;10.622;2022-07-23T02:41:03;8.70;;;5.63;;
23730;SDS011;12046;44.702;10.622;2022-07-23T02:43:28;7.30;;;5.43;;
23730;SDS011;12046;44.702;10.622;2022-07-23T02:45:54;8.95;;;6.00;;
23730;SDS011;12046;44.702;10.622;2022-07-23T02:48:21;8.25;;;5.32;;
23730;SDS011;12046;44.702;10.622;2022-07-23T02:50:47;12.48;;;6.07;;
23730;SDS011;12046;44.702;10.622;2022-07-23T02:53:12;6.35;;;5.57;;
23730;SDS011;12046;44.702;10.622;2022-07-23T02:55:39;6.38;;;5.63;;
23730;SDS011;12046;44.702;10.622;2022-07-23T02:58:05;8.55;;;6.32;;
23730;SDS011;12046;44.702;10.622;2022-07-23T03:00:31;9.60;;;5.93;;
23730;SDS011;12046;44.702;10.622;2022-07-23T03:02:57;6.38;;;5.43;;
23730;SDS011;12046;44.702;10.622;2022-07-23T03:05:23;6.38;;;5.53;;
23730;SDS011;12046;44.702;10.622;2022-07-23T03:07:49;7.82;;;5.35;;
23730;SDS011;12046;44.702;10.622;2022-07-23T03:10:15;6.90;;;4.93;;
23730;SDS011;12046;44.702;10.622;2022-07-23T03:12:41;9.00;;;5.57;;
23730;SDS011;12046;44.702;10.622;2022-07-23T03:15:07;5.75;;;5.10;;
23730;SDS011;12046;44.702;10.622;2022-07-23T03:17:34;9.02;;;5.50;;
23730;SDS011;12046;44.702;10.622;2022-07-23T03:20:00;6.28;;;5.15;;
23730;SDS011;12046;44.702;10.622;2022-07-23T03:22:26;7.80;;;5.88;;
23730;SDS011;12046;44.702;10.622;2022-07-23T03:24:52;8.57;;;5.70;;
23730;SDS011;12046;44.702;10.622;2022-07-23T03:27:22;8.85;;;5.70;;
23730;SDS011;12046;44.702;10.622;2022-07-23T03:29:50;6.97;;;5.57;;
23730;SDS011;12046;44.702;10.622;2022-07-23T03:32:16;5.60;;;5.07;;
23730;SDS011;12046;44.702;10.622;2022-07-23T03:34:42;8.07;;;4.85;;
23730;SDS011;12046;44.702;10.622;2022-07-23T03:37:08;9.15;;;5.43;;
23730;SDS011;12046;44.702;10.622;2022-07-23T03:39:34;7.43;;;5.53;;
23730;SDS011;12046;44.702;10.622;2022-07-23T03:42:00;8.82;;;5.47;;
23730;SDS011;12046;44.702;10.622;2022-07-23T03:44:26;9.05;;;5.30;;
23730;SDS011;12046;44.702;10.622;2022-07-23T03:46:55;8.55;;;5.43;;
23730;SDS011;12046;44.702;10.622;2022-07-23T03:49:21;9.27;;;5.38;;
23730;SDS011;12046;44.702;10.622;2022-07-23T03:51:47;10.38;;;5.88;;
23730;SDS011;12046;44.702;10.622;2022-07-23T03:54:16;7.25;;;5.15;;
23730;SDS011;12046;44.702;10.622;2022-07-23T03:56:42;7.43;;;4.80;;
23730;SDS011;12046;44.702;10.622;2022-07-23T03:59:08;7.57;;;5.32;;
23730;SDS011;12046;44.702;10.622;2022-07-23T04:01:34;7.10;;;5.07;;
23730;SDS011;12046;44.702;10.622;2022-07-23T04:04:01;8.48;;;5.40;;
23730;SDS011;12046;44.702;10.622;2022-07-23T04:06:28;8.77;;;4.85;;
23730;SDS011;12046;44.702;10.622;2022-07-23T04:08:54;8.15;;;4.75;;
23730;SDS011;12046;44.702;10.622;2022-07-23T04:11:20;7.93;;;4.78;;
23730;SDS011;12046;44.702;10.622;2022-07-23T04:13:46;4.97;;;4.30;;
23730;SDS011;12046;44.702;10.622;2022-07-23T04:16:12;8.90;;;4.88;;
23730;SDS011;12046;44.702;10.622;2022-07-23T04:18:38;8.50;;;5.22;;
23730;SDS011;12046;44.702;10.622;2022-07-23T04:21:04;7.97;;;4.63;;
23730;SDS011;12046;44.702;10.622;2022-07-23T04:23:30;6.82;;;4.55;;
23730;SDS011;12046;44.702;10.622;2022-07-23T04:25:56;8.95;;;3.97;;
23730;SDS011;12046;44.702;10.622;2022-07-23T04:28:22;5.10;;;3.90;;
23730;SDS011;12046;44.702;10.622;2022-07-23T04:30:49;7.32;;;4.50;;
23730;SDS011;12046;44.702;10.622;2022-07-23T04:33:15;10.27;;;4.28;;
23730;SDS011;12046;44.702;10.622;2022-07-23T04:35:41;4.45;;;3.63;;
23730;SDS011;12046;44.702;10.622;2022-07-23T04:38:07;7.32;;;3.35;;
23730;SDS011;12046;44.702;10.622;2022-07-23T04:40:33;7.57;;;4.10;;
23730;SDS011;12046;44.702;10.622;2022-07-23T04:42:59;6.53;;;3.50;;
23730;SDS011;12046;44.702;10.622;2022-07-23T04:45:25;5.80;;;3.95;;
23730;SDS011;12046;44.702;10.622;2022-07-23T04:47:51;6.13;;;3.90;;
23730;SDS011;12046;44.702;10.622;2022-07-23T04:50:17;6.47;;;3.70;;
23730;SDS011;12046;44.702;10.622;2022-07-23T04:52:47;4.75;;;3.58;;
23730;SDS011;12046;44.702;10.622;2022-07-23T04:55:14;5.22;;;3.60;;
23730;SDS011;12046;44.702;10.622;2022-07-23T04:57:40;5.10;;;3.80;;
23730;SDS011;12046;44.702;10.622;2022-07-23T05:00:07;7.78;;;3.83;;
23730;SDS011;12046;44.702;10.622;2022-07-23T05:02:34;4.00;;;3.47;;
23730;SDS011;12046;44.702;10.622;2022-07-23T05:05:00;4.88;;;3.55;;
23730;SDS011;12046;44.702;10.622;2022-07-23T05:07:26;6.88;;;4.18;;
23730;SDS011;12046;44.702;10.622;2022-07-23T05:09:51;6.97;;;3.72;;
23730;SDS011;12046;44.702;10.622;2022-07-23T05:12:17;6.60;;;4.00;;
23730;SDS011;12046;44.702;10.622;2022-07-23T05:14:43;4.18;;;3.50;;
23730;SDS011;12046;44.702;10.622;2022-07-23T05:17:09;8.88;;;3.50;;
23730;SDS011;12046;44.702;10.622;2022-07-23T05:19:36;5.32;;;4.18;;
23730;SDS011;12046;44.702;10.622;2022-07-23T05:22:02;8.10;;;3.78;;
23730;SDS011;12046;44.702;10.622;2022-07-23T05:24:28;5.10;;;3.90;;
23730;SDS011;12046;44.702;10.622;2022-07-23T05:26:54;7.57;;;4.57;;
23730;SDS011;12046;44.702;10.622;2022-07-23T05:29:20;8.45;;;4.50;;
23730;SDS011;12046;44.702;10.622;2022-07-23T05:31:46;7.97;;;4.18;;
23730;SDS011;12046;44.702;10.622;2022-07-23T05:34:12;6.18;;;4.43;;
23730;SDS011;12046;44.702;10.622;2022-07-23T05:36:38;8.60;;;4.38;;
23730;SDS011;12046;44.702;10.622;2022-07-23T05:39:04;7.80;;;4.10;;
23730;SDS011;12046;44.702;10.622;2022-07-23T05:41:30;7.18;;;4.40;;
23730;SDS011;12046;44.702;10.622;2022-07-23T05:43:56;6.40;;;4.70;;
23730;SDS011;12046;44.702;10.622;2022-07-23T05:46:22;7.72;;;5.28;;
23730;SDS011;12046;44.702;10.622;2022-07-23T05:48:51;13.60;;;6.47;;
23730;SDS011;12046;44.702;10.622;2022-07-23T05:51:21;9.95;;;5.82;;
23730;SDS011;12046;44.702;10.622;2022-07-23T05:53:50;7.63;;;5.70;;
23730;SDS011;12046;44.702;10.622;2022-07-23T05:56:17;11.35;;;5.78;;
23730;SDS011;12046;44.702;10.622;2022-07-23T05:58:46;10.80;;;6.20;;
23730;SDS011;12046;44.702;10.622;2022-07-23T06:01:15;7.72;;;6.07;;
23730;SDS011;12046;44.702;10.622;2022-07-23T06:03:41;9.77;;;6.97;;
23730;SDS011;12046;44.702;10.622;2022-07-23T06:06:07;13.27;;;6.25;;
23730;SDS011;12046;44.702;10.622;2022-07-23T06:08:36;9.82;;;6.22;;
23730;SDS011;12046;44.702;10.622;2022-07-23T06:11:07;7.32;;;6.22;;
23730;SDS011;12046;44.702;10.622;2022-07-23T06:13:44;8.57;;;6.22;;
23730;SDS011;12046;44.702;10.622;2022-07-23T06:16:10;14.15;;;6.05;;
23730;SDS011;12046;44.702;10.622;2022-07-23T06:18:36;7.70;;;5.72;;
23730;SDS011;12046;44.702;10.622;2022-07-23T06:21:07;8.40;;;5.63;;
23730;SDS011;12046;44.702;10.622;2022-07-23T06:23:42;10.40;;;5.47;;
23730;SDS011;12046;44.702;10.622;2022-07-23T06:26:08;11.00;;;6.30;;
23730;SDS011;12046;44.702;10.622;2022-07-23T06:28:34;7.93;;;5.25;;
23730;SDS011;12046;44.702;10.622;2022-07-23T06:31:03;8.02;;;5.38;;
23730;SDS011;12046;44.702;10.622;2022-07-23T06:33:29;6.10;;;5.10;;
23730;SDS011;12046;44.702;10.622;2022-07-23T06:35:55;6.80;;;5.13;;
23730;SDS011;12046;44.702;10.622;2022-07-23T06:38:26;6.35;;;4.97;;
23730;SDS011;12046;44.702;10.622;2022-07-23T06:40:52;10.73;;;5.25;;
23730;SDS011;12046;44.702;10.622;2022-07-23T06:43:18;6.38;;;5.00;;
23730;SDS011;12046;44.702;10.622;2022-07-23T06:45:44;5.57;;;4.35;;
23730;SDS011;12046;44.702;10.622;2022-07-23T06:48:10;7.07;;;5.00;;
23730;SDS011;12046;44.702;10.622;2022-07-23T06:50:42;5.28;;;4.60;;
23730;SDS011;12046;44.702;10.622;2022-07-23T06:53:16;6.45;;;4.70;;
23730;SDS011;12046;44.702;10.622;2022-07-23T06:55:42;7.30;;;5.60;;
23730;SDS011;12046;44.702;10.622;2022-07-23T06:58:08;6.63;;;5.03;;
23730;SDS011;12046;44.702;10.622;2022-07-23T07:00:35;8.55;;;5.57;;
23730;SDS011;12046;44.702;10.622;2022-07-23T07:03:01;7.15;;;4.97;;
23730;SDS011;12046;44.702;10.622;2022-07-23T07:05:27;8.38;;;4.80;;
23730;SDS011;12046;44.702;10.622;2022-07-23T07:07:56;8.05;;;5.53;;
23730;SDS011;12046;44.702;10.622;2022-07-23T07:10:22;9.13;;;5.93;;
23730;SDS011;12046;44.702;10.622;2022-07-23T07:12:48;9.73;;;5.47;;
23730;SDS011;12046;44.702;10.622;2022-07-23T07:15:14;7.25;;;5.10;;
23730;SDS011;12046;44.702;10.622;2022-07-23T07:17:40;14.05;;;6.03;;
23730;SDS011;12046;44.702;10.622;2022-07-23T07:20:07;11.07;;;5.65;;
23730;SDS011;12046;44.702;10.622;2022-07-23T07:22:34;10.32;;;6.45;;
23730;SDS011;12046;44.702;10.622;2022-07-23T07:25:00;13.15;;;5.78;;
23730;SDS011;12046;44.702;10.622;2022-07-23T07:27:26;14.25;;;5.32;;
23730;SDS011;12046;44.702;10.622;2022-07-23T07:29:52;11.45;;;5.05;;
23730;SDS011;12046;44.702;10.622;2022-07-23T07:32:18;8.57;;;5.03;;
23730;SDS011;12046;44.702;10.622;2022-07-23T07:34:44;10.15;;;5.28;;
23730;SDS011;12046;44.702;10.622;2022-07-23T07:37:10;10.07;;;5.45;;
23730;SDS011;12046;44.702;10.622;2022-07-23T07:39:36;6.13;;;5.00;;
23730;SDS011;12046;44.702;10.622;2022-07-23T07:42:02;5.32;;;4.45;;
23730;SDS011;12046;44.702;10.622;2022-07-23T07:44:29;7.78;;;4.93;;
23730;SDS011;12046;44.702;10.622;2022-07-23T07:46:55;5.70;;;4.85;;
23730;SDS011;12046;44.702;10.622;2022-07-23T07:49:21;6.63;;;5.03;;
23730;SDS011;12046;44.702;10.622;2022-07-23T07:51:47;7.10;;;5.22;;
23730;SDS011;12046;44.702;10.622;2022-07-23T07:54:13;7.40;;;4.93;;
23730;SDS011;12046;44.702;10.622;2022-07-23T07:56:39;5.47;;;4.05;;
23730;SDS011;12046;44.702;10.622;2022-07-23T07:59:05;8.38;;;4.93;;
23730;SDS011;12046;44.702;10.622;2022-07-23T08:01:31;5.80;;;4.57;;
23730;SDS011;12046;44.702;10.622;2022-07-23T08:03:57;7.65;;;4.72;;
23730;SDS011;12046;44.702;10.622;2022-07-23T08:06:23;8.07;;;4.55;;
23730;SDS011;12046;44.702;10.622;2022-07-23T08:08:49;6.72;;;4.60;;
23730;SDS011;12046;44.702;10.622;2022-07-23T08:11:15;6.60;;;4.28;;
23730;SDS011;12046;44.702;10.622;2022-07-23T08:13:41;7.72;;;4.72;;
23730;SDS011;12046;44.702;10.622;2022-07-23T08:16:12;6.45;;;4.35;;
23730;SDS011;12046;44.702;10.622;2022-07-23T08:18:38;5.47;;;3.95;;
23730;SDS011;12046;44.702;10.622;2022-07-23T08:21:04;9.55;;;4.05;;
23730;SDS011;12046;44.702;10.622;2022-07-23T08:23:31;6.93;;;4.07;;
23730;SDS011;12046;44.702;10.622;2022-07-23T08:25:57;10.13;;;4.35;;
23730;SDS011;12046;44.702;10.622;2022-07-23T08:28:25;6.00;;;4.50;;
23730;SDS011;12046;44.702;10.622;2022-07-23T08:30:57;4.43;;;3.97;;
23730;SDS011;12046;44.702;10.622;2022-07-23T08:33:23;6.20;;;4.25;;
23730;SDS011;12046;44.702;10.622;2022-07-23T08:35:51;5.22;;;3.70;;
23730;SDS011;12046;44.702;10.622;2022-07-23T08:38:19;8.88;;;4.70;;
23730;SDS011;12046;44.702;10.622;2022-07-23T08:40:47;7.07;;;3.78;;
23730;SDS011;12046;44.702;10.622;2022-07-23T08:43:17;5.70;;;4.40;;
23730;SDS011;12046;44.702;10.622;2022-07-23T08:45:46;8.32;;;4.10;;
23730;SDS011;12046;44.702;10.622;2022-07-23T08:48:14;7.13;;;4.72;;
23730;SDS011;12046;44.702;10.622;2022-07-23T08:50:49;6.80;;;4.70;;
23730;SDS011;12046;44.702;10.622;2022-07-23T08:53:21;9.88;;;4.50;;
23730;SDS011;12046;44.702;10.622;2022-07-23T08:55:49;6.57;;;5.00;;
23730;SDS011;12046;44.702;10.622;2022-07-23T08:58:16;7.00;;;4.88;;
23730;SDS011;12046;44.702;10.622;2022-07-23T09:00:43;5.95;;;5.18;;
23730;SDS011;12046;44.702;10.622;2022-07-23T09:03:19;5.03;;;4.50;;
23730;SDS011;12046;44.702;10.622;2022-07-23T09:05:47;7.97;;;4.90;;
23730;SDS011;12046;44.702;10.622;2022-07-23T09:08:27;6.13;;;5.03;;
23730;SDS011;12046;44.702;10.622;2022-07-23T09:11:13;7.28;;;5.05;;
23730;SDS011;12046;44.702;10.622;2022-07-23T09:16:12;7.63;;;5.07;;
23730;SDS011;12046;44.702;10.622;2022-07-23T09:18:48;6.05;;;5.07;;
23730;SDS011;12046;44.702;10.622;2022-07-23T09:21:16;7.55;;;5.15;;
23730;SDS011;12046;44.702;10.622;2022-07-23T09:26:23;7.90;;;5.20;;
23730;SDS011;12046;44.702;10.622;2022-07-23T09:28:56;11.05;;;5.22;;
23730;SDS011;12046;44.702;10.622;2022-07-23T09:31:25;7.15;;;4.88;;
23730;SDS011;12046;44.702;10.622;2022-07-23T09:34:20;6.93;;;5.15;;
23730;SDS011;12046;44.702;10.622;2022-07-23T09:36:52;9.60;;;5.55;;
23730;SDS011;12046;44.702;10.622;2022-07-23T09:39:31;9.00;;;5.38;;
23730;SDS011;12046;44.702;10.622;2022-07-23T09:44:51;6.63;;;5.18;;
23730;SDS011;12046;44.702;10.622;2022-07-23T09:47:18;9.25;;;5.75;;
23730;SDS011;12046;44.702;10.622;2022-07-23T09:50:02;8.27;;;5.70;;
23730;SDS011;12046;44.702;10.622;2022-07-23T09:52:44;10.00;;;6.03;;
23730;SDS011;12046;44.702;10.622;2022-07-23T09:55:15;9.43;;;5.70;;
23730;SDS011;12046;44.702;10.622;2022-07-23T09:57:42;5.90;;;5.30;;
23730;SDS011;12046;44.702;10.622;2022-07-23T10:00:15;9.23;;;5.65;;
23730;SDS011;12046;44.702;10.622;2022-07-23T10:02:41;10.23;;;5.65;;
23730;SDS011;12046;44.702;10.622;2022-07-23T10:05:11;9.15;;;5.65;;
23730;SDS011;12046;44.702;10.622;2022-07-23T10:07:37;8.23;;;5.93;;
23730;SDS011;12046;44.702;10.622;2022-07-23T10:10:05;8.77;;;5.93;;
23730;SDS011;12046;44.702;10.622;2022-07-23T10:12:32;10.15;;;5.80;;
23730;SDS011;12046;44.702;10.622;2022-07-23T10:15:08;13.40;;;5.97;;
23730;SDS011;12046;44.702;10.622;2022-07-23T10:17:34;9.60;;;6.13;;
23730;SDS011;12046;44.702;10.622;2022-07-23T10:20:01;8.98;;;6.07;;
23730;SDS011;12046;44.702;10.622;2022-07-23T10:22:29;8.70;;;5.82;;
23730;SDS011;12046;44.702;10.622;2022-07-23T10:25:00;8.60;;;6.07;;
23730;SDS011;12046;44.702;10.622;2022-07-23T10:33:38;6.97;;;5.47;;
23730;SDS011;12046;44.702;10.622;2022-07-23T10:36:29;10.38;;;5.35;;
23730;SDS011;12046;44.702;10.622;2022-07-23T10:39:15;9.43;;;5.80;;
23730;SDS011;12046;44.702;10.622;2022-07-23T10:41:51;7.32;;;5.35;;
23730;SDS011;12046;44.702;10.622;2022-07-23T10:44:19;8.57;;;5.50;;
23730;SDS011;12046;44.702;10.622;2022-07-23T10:49:26;5.57;;;5.07;;
23730;SDS011;12046;44.702;10.622;2022-07-23T10:55:38;5.53;;;5.03;;
23730;SDS011;12046;44.702;10.622;2022-07-23T10:57:48;8.63;;;5.32;;
23730;SDS011;12046;44.702;10.622;2022-07-23T11:00:25;7.43;;;5.15;;
23730;SDS011;12046;44.702;10.622;2022-07-23T11:02:57;11.43;;;5.10;;
23730;SDS011;12046;44.702;10.622;2022-07-23T11:05:26;6.85;;;5.00;;
23730;SDS011;12046;44.702;10.622;2022-07-23T11:08:13;8.85;;;6.10;;
23730;SDS011;12046;44.702;10.622;2022-07-23T11:24:07;6.30;;;5.50;;
23730;SDS011;12046;44.702;10.622;2022-07-23T11:31:55;6.53;;;5.10;;
23730;SDS011;12046;44.702;10.622;2022-07-23T11:34:31;6.35;;;4.75;;
23730;SDS011;12046;44.702;10.622;2022-07-23T11:37:09;5.70;;;5.13;;
23730;SDS011;12046;44.702;10.622;2022-07-23T11:39:36;6.80;;;5.47;;
23730;SDS011;12046;44.702;10.622;2022-07-23T11:42:03;5.75;;;5.00;;
23730;SDS011;12046;44.702;10.622;2022-07-23T11:47:05;9.77;;;5.65;;
23730;SDS011;12046;44.702;10.622;2022-07-23T11:49:35;7.40;;;5.05;;
23730;SDS011;12046;44.702;10.622;2022-07-23T11:52:02;5.80;;;4.88;;
23730;SDS011;12046;44.702;10.622;2022-07-23T11:54:31;8.65;;;5.63;;
23730;SDS011;12046;44.702;10.622;2022-07-23T11:56:59;5.43;;;4.72;;
23730;SDS011;12046;44.702;10.622;2022-07-23T11:59:27;6.60;;;5.07;;
23730;SDS011;12046;44.702;10.622;2022-07-23T12:01:59;5.80;;;5.22;;
23730;SDS011;12046;44.702;10.622;2022-07-23T12:04:43;5.97;;;4.75;;
23730;SDS011;12046;44.702;10.622;2022-07-23T12:09:50;7.53;;;5.07;;
23730;SDS011;12046;44.702;10.622;2022-07-23T12:12:16;8.38;;;5.65;;
23730;SDS011;12046;44.702;10.622;2022-07-23T12:17:26;5.80;;;5.15;;
23730;SDS011;12046;44.702;10.622;2022-07-23T12:19:57;5.07;;;4.68;;
23730;SDS011;12046;44.702;10.622;2022-07-23T12:22:25;5.65;;;5.10;;
23730;SDS011;12046;44.702;10.622;2022-07-23T12:24:59;7.05;;;5.05;;
23730;SDS011;12046;44.702;10.622;2022-07-23T12:27:27;5.97;;;5.03;;
23730;SDS011;12046;44.702;10.622;2022-07-23T12:29:56;5.60;;;5.13;;
23730;SDS011;12046;44.702;10.622;2022-07-23T12:32:23;5.72;;;5.18;;
23730;SDS011;12046;44.702;10.622;2022-07-23T12:35:04;6.72;;;5.28;;
23730;SDS011;12046;44.702;10.622;2022-07-23T12:37:36;5.72;;;5.13;;
23730;SDS011;12046;44.702;10.622;2022-07-23T12:40:24;7.95;;;4.97;;
23730;SDS011;12046;44.702;10.622;2022-07-23T12:45:24;5.40;;;4.88;;
23730;SDS011;12046;44.702;10.622;2022-07-23T12:47:51;8.32;;;5.80;;
23730;SDS011;12046;44.702;10.622;2022-07-23T12:50:32;7.95;;;5.28;;
23730;SDS011;12046;44.702;10.622;2022-07-23T12:53:23;8.05;;;5.25;;
23730;SDS011;12046;44.702;10.622;2022-07-23T12:59:15;7.55;;;5.43;;
23730;SDS011;12046;44.702;10.622;2022-07-23T13:01:45;7.88;;;5.13;;
23730;SDS011;12046;44.702;10.622;2022-07-23T13:04:24;9.23;;;5.20;;
23730;SDS011;12046;44.702;10.622;2022-07-23T13:06:52;9.45;;;5.20;;
23730;SDS011;12046;44.702;10.622;2022-07-23T13:09:21;8.95;;;5.57;;
23730;SDS011;12046;44.702;10.622;2022-07-23T13:11:51;13.02;;;6.10;;
23730;SDS011;12046;44.702;10.622;2022-07-23T13:14:18;6.82;;;5.45;;
23730;SDS011;12046;44.702;10.622;2022-07-23T13:16:46;8.93;;;5.10;;
23730;SDS011;12046;44.702;10.622;2022-07-23T13:19:14;7.07;;;4.70;;
23730;SDS011;12046;44.702;10.622;2022-07-23T13:21:41;9.30;;;5.57;;
23730;SDS011;12046;44.702;10.622;2022-07-23T13:24:08;5.60;;;5.00;;
23730;SDS011;12046;44.702;10.622;2022-07-23T13:26:36;9.30;;;5.32;;
23730;SDS011;12046;44.702;10.622;2022-07-23T13:29:02;6.60;;;5.93;;
23730;SDS011;12046;44.702;10.622;2022-07-23T13:31:29;8.15;;;5.60;;
23730;SDS011;12046;44.702;10.622;2022-07-23T13:33:55;6.90;;;5.30;;
23730;SDS011;12046;44.702;10.622;2022-07-23T13:36:21;7.07;;;5.18;;
23730;SDS011;12046;44.702;10.622;2022-07-23T13:38:47;6.43;;;5.20;;
23730;SDS011;12046;44.702;10.622;2022-07-23T13:41:13;7.05;;;5.78;;
23730;SDS011;12046;44.702;10.622;2022-07-23T13:43:41;6.85;;;5.03;;
23730;SDS011;12046;44.702;10.622;2022-07-23T13:46:07;7.60;;;5.68;;
23730;SDS011;12046;44.702;10.622;2022-07-23T13:48:33;8.25;;;5.53;;
23730;SDS011;12046;44.702;10.622;2022-07-23T13:50:59;7.75;;;5.47;;
23730;SDS011;12046;44.702;10.622;2022-07-23T13:53:25;7.82;;;4.80;;
23730;SDS011;12046;44.702;10.622;2022-07-23T13:55:52;7.43;;;5.38;;
23730;SDS011;12046;44.702;10.622;2022-07-23T13:58:19;11.32;;;5.30;;
23730;SDS011;12046;44.702;10.622;2022-07-23T14:00:46;9.43;;;6.15;;
23730;SDS011;12046;44.702;10.622;2022-07-23T14:03:16;6.78;;;5.50;;
23730;SDS011;12046;44.702;10.622;2022-07-23T14:05:43;7.25;;;5.28;;
23730;SDS011;12046;44.702;10.622;2022-07-23T14:08:09;6.55;;;5.30;;
23730;SDS011;12046;44.702;10.622;2022-07-23T14:10:35;7.88;;;5.97;;
23730;SDS011;12046;44.702;10.622;2022-07-23T14:13:02;10.60;;;5.90;;
23730;SDS011;12046;44.702;10.622;2022-07-23T14:15:29;6.35;;;5.25;;
23730;SDS011;12046;44.702;10.622;2022-07-23T14:17:56;7.22;;;5.43;;
23730;SDS011;12046;44.702;10.622;2022-07-23T14:20:24;6.63;;;5.20;;
23730;SDS011;12046;44.702;10.622;2022-07-23T14:22:50;6.45;;;5.75;;
23730;SDS011;12046;44.702;10.622;2022-07-23T14:25:17;7.40;;;5.68;;
23730;SDS011;12046;44.702;10.622;2022-07-23T14:27:43;9.60;;;5.15;;
23730;SDS011;12046;44.702;10.622;2022-07-23T14:30:10;5.82;;;5.07;;
23730;SDS011;12046;44.702;10.622;2022-07-23T14:32:37;7.45;;;5.18;;
23730;SDS011;12046;44.702;10.622;2022-07-23T14:35:04;6.75;;;5.22;;
23730;SDS011;12046;44.702;10.622;2022-07-23T14:37:31;6.22;;;5.43;;
23730;SDS011;12046;44.702;10.622;2022-07-23T14:39:57;5.68;;;5.15;;
23730;SDS011;12046;44.702;10.622;2022-07-23T14:42:23;8.85;;;5.50;;
23730;SDS011;12046;44.702;10.622;2022-07-23T14:44:50;7.78;;;5.30;;
23730;SDS011;12046;44.702;10.622;2022-07-23T14:47:16;5.18;;;4.68;;
23730;SDS011;12046;44.702;10.622;2022-07-23T14:49:42;6.05;;;5.45;;
23730;SDS011;12046;44.702;10.622;2022-07-23T14:52:08;9.23;;;5.22;;
23730;SDS011;12046;44.702;10.622;2022-07-23T14:54:34;6.97;;;5.07;;
23730;SDS011;12046;44.702;10.622;2022-07-23T14:57:00;6.13;;;5.22;;
23730;SDS011;12046;44.702;10.622;2022-07-23T14:59:28;7.95;;;4.50;;
23730;SDS011;12046;44.702;10.622;2022-07-23T15:01:56;6.43;;;4.72;;
23730;SDS011;12046;44.702;10.622;2022-07-23T15:04:23;8.32;;;4.90;;
23730;SDS011;12046;44.702;10.622;2022-07-23T15:06:50;6.43;;;5.03;;
23730;SDS011;12046;44.702;10.622;2022-07-23T15:09:16;7.28;;;5.05;;
23730;SDS011;12046;44.702;10.622;2022-07-23T15:11:43;6.28;;;5.25;;
23730;SDS011;12046;44.702;10.622;2022-07-23T15:14:09;8.85;;;5.57;;
23730;SDS011;12046;44.702;10.622;2022-07-23T15:16:36;6.97;;;4.80;;
23730;SDS011;12046;44.702;10.622;2022-07-23T15:19:02;6.55;;;5.50;;
23730;SDS011;12046;44.702;10.622;2022-07-23T15:21:30;7.80;;;5.15;;
23730;SDS011;12046;44.702;10.622;2022-07-23T15:23:56;12.15;;;5.30;;
23730;SDS011;12046;44.702;10.622;2022-07-23T15:26:26;6.25;;;5.10;;
23730;SDS011;12046;44.702;10.622;2022-07-23T15:28:53;6.47;;;5.10;;
23730;SDS011;12046;44.702;10.622;2022-07-23T15:31:19;6.88;;;4.80;;